Time;durP1;ratioP1;P1;durP2;ratioP2;P2;SDS_P1;SDS_P2;PMS_P1;PMS_P2;Temp;Humidity;BMP_temperature;BMP_pressure;BME280_temperature;BME280_humidity;BME280_pressure;Samples;Min_cycle;Max_cycle;Signal;HPM_P1;HPM_P2
2023/09/27 00:00:10;;;;;;;16.25;10.77;;;;;;;;;;5114017;28;20198;-65
2023/09/27 00:03:01;;;;;;;16.85;10.52;;;;;;;;;;5113716;28;20202;-64
2023/09/27 00:05:29;;;;;;;16.90;11.35;;;;;;;;;;5114312;28;20205;-65
2023/09/27 00:07:57;;;;;;;15.23;11.35;;;;;;;;;;5116721;28;20205;-65
2023/09/27 00:10:25;;;;;;;18.83;11.27;;;;;;;;;;5117915;28;20197;-66
2023/09/27 00:12:52;;;;;;;18.70;11.27;;;;;;;;;;5117962;28;20206;-65
2023/09/27 00:15:19;;;;;;;18.13;11.13;;;;;;;;;;5117886;28;20198;-65
2023/09/27 00:17:48;;;;;;;19.35;11.05;;;;;;;;;;5117758;28;20247;-65
2023/09/27 00:20:19;;;;;;;17.10;10.82;;;;;;;;;;5117547;28;20229;-65
2023/09/27 00:22:47;;;;;;;20.40;11.48;;;;;;;;;;5118177;28;20665;-65
2023/09/27 00:25:14;;;;;;;18.50;10.45;;;;;;;;;;5117792;28;20251;-65
2023/09/27 00:27:42;;;;;;;20.08;11.10;;;;;;;;;;5117618;28;20275;-65
2023/09/27 00:30:14;;;;;;;18.23;11.07;;;;;;;;;;5117629;28;20198;-65
2023/09/27 00:32:44;;;;;;;15.38;10.45;;;;;;;;;;5117810;28;20619;-65
2023/09/27 00:35:22;;;;;;;16.58;10.70;;;;;;;;;;5117484;28;20247;-65
2023/09/27 00:37:53;;;;;;;24.02;11.48;;;;;;;;;;5117735;28;20209;-64
2023/09/27 00:40:23;;;;;;;27.40;10.80;;;;;;;;;;5117486;28;20198;-64
2023/09/27 00:42:50;;;;;;;14.77;10.95;;;;;;;;;;5117283;28;20205;-64
2023/09/27 00:45:18;;;;;;;14.98;10.70;;;;;;;;;;5117238;28;20205;-64
2023/09/27 00:47:47;;;;;;;18.90;11.68;;;;;;;;;;5117360;28;20206;-65
2023/09/27 00:50:15;;;;;;;20.50;10.98;;;;;;;;;;5117006;28;20198;-66
2023/09/27 00:52:43;;;;;;;16.40;10.43;;;;;;;;;;5117146;28;20201;-64
2023/09/27 00:55:12;;;;;;;21.02;11.40;;;;;;;;;;5117060;28;20198;-64
2023/09/27 00:57:40;;;;;;;18.77;11.20;;;;;;;;;;5117177;28;20234;-65
2023/09/27 01:00:10;;;;;;;17.92;10.45;;;;;;;;;;5116029;28;20225;-64
2023/09/27 01:02:41;;;;;;;20.13;11.10;;;;;;;;;;5116089;28;20614;-64
2023/09/27 01:05:09;;;;;;;17.92;11.65;;;;;;;;;;5115943;28;20289;-65
2023/09/27 01:07:40;;;;;;;19.10;11.35;;;;;;;;;;5115629;28;20654;-63
2023/09/27 01:10:09;;;;;;;16.73;10.40;;;;;;;;;;5115593;28;20233;-65
2023/09/27 01:12:37;;;;;;;20.48;12.20;;;;;;;;;;5116937;28;20210;-65
2023/09/27 01:15:08;;;;;;;20.33;10.68;;;;;;;;;;5116838;28;20210;-64
2023/09/27 01:17:35;;;;;;;16.85;10.32;;;;;;;;;;5116551;28;20233;-65
2023/09/27 01:20:11;;;;;;;17.90;11.48;;;;;;;;;;5116602;27;20705;-64
2023/09/27 01:22:38;;;;;;;21.52;11.65;;;;;;;;;;5116595;27;20663;-65
2023/09/27 01:25:07;;;;;;;18.33;11.25;;;;;;;;;;5116757;28;20202;-65
2023/09/27 01:27:35;;;;;;;22.63;11.50;;;;;;;;;;5098662;28;20211;-65
2023/09/27 01:30:05;;;;;;;17.63;10.68;;;;;;;;;;5115494;28;20284;-65
2023/09/27 01:32:33;;;;;;;19.98;11.05;;;;;;;;;;5115147;28;20213;-65
2023/09/27 01:35:00;;;;;;;20.23;11.63;;;;;;;;;;5116097;28;20266;-65
2023/09/27 01:37:28;;;;;;;24.33;11.85;;;;;;;;;;5116387;28;20230;-64
2023/09/27 01:39:55;;;;;;;18.10;11.63;;;;;;;;;;5116416;28;20277;-65
2023/09/27 01:42:23;;;;;;;20.13;11.20;;;;;;;;;;5114877;28;20213;-65
2023/09/27 01:44:50;;;;;;;14.85;10.02;;;;;;;;;;5115101;28;20255;-65
2023/09/27 01:47:17;;;;;;;21.70;10.15;;;;;;;;;;5114950;28;20206;-65
2023/09/27 01:49:44;;;;;;;19.77;10.02;;;;;;;;;;5114858;28;20694;-65
2023/09/27 01:52:12;;;;;;;17.65;10.73;;;;;;;;;;5116003;27;20197;-65
2023/09/27 01:54:39;;;;;;;15.25;9.65;;;;;;;;;;5109550;28;20195;-64
2023/09/27 01:57:06;;;;;;;15.50;10.00;;;;;;;;;;5094089;28;20223;-64
2023/09/27 01:59:33;;;;;;;19.27;10.27;;;;;;;;;;5093306;28;20207;-63
2023/09/27 02:02:00;;;;;;;19.55;11.27;;;;;;;;;;5092754;28;20717;-63
2023/09/27 02:04:27;;;;;;;17.77;10.80;;;;;;;;;;5093555;28;20584;-62
2023/09/27 02:06:55;;;;;;;16.90;11.02;;;;;;;;;;5094595;28;20194;-64
2023/09/27 02:09:22;;;;;;;17.00;10.55;;;;;;;;;;5094152;28;20213;-65
2023/09/27 02:11:49;;;;;;;18.40;10.30;;;;;;;;;;5095471;28;20214;-63
2023/09/27 02:14:16;;;;;;;23.00;12.10;;;;;;;;;;5095274;28;20210;-62
2023/09/27 02:16:46;;;;;;;19.77;11.23;;;;;;;;;;5093685;28;20597;-65
2023/09/27 02:19:13;;;;;;;19.33;11.60;;;;;;;;;;5093928;28;20242;-65
2023/09/27 02:21:40;;;;;;;19.27;11.40;;;;;;;;;;5093866;28;20206;-65
2023/09/27 02:24:09;;;;;;;16.85;10.88;;;;;;;;;;5093860;28;20286;-64
2023/09/27 02:26:36;;;;;;;17.90;11.93;;;;;;;;;;5093856;28;20221;-64
2023/09/27 02:29:03;;;;;;;18.45;11.73;;;;;;;;;;5094484;28;20199;-65
2023/09/27 02:31:30;;;;;;;19.25;11.50;;;;;;;;;;5095109;28;20195;-66
2023/09/27 02:33:57;;;;;;;16.98;10.88;;;;;;;;;;5093413;28;20194;-65
2023/09/27 02:36:24;;;;;;;16.90;10.82;;;;;;;;;;5093692;28;20226;-65
2023/09/27 02:38:51;;;;;;;14.88;11.13;;;;;;;;;;5095031;28;20202;-66
2023/09/27 02:41:19;;;;;;;17.52;10.98;;;;;;;;;;5094724;28;20205;-65
2023/09/27 02:43:46;;;;;;;17.52;10.77;;;;;;;;;;5093464;28;20637;-65
2023/09/27 02:46:14;;;;;;;14.82;10.82;;;;;;;;;;5094754;28;20194;-65
2023/09/27 02:48:41;;;;;;;17.95;9.93;;;;;;;;;;5094411;28;20203;-65
2023/09/27 02:51:08;;;;;;;15.27;10.25;;;;;;;;;;5094595;28;20255;-64
2023/09/27 02:53:35;;;;;;;18.17;10.98;;;;;;;;;;5094738;28;20203;-65
2023/09/27 02:56:05;;;;;;;16.10;10.77;;;;;;;;;;5094236;28;20260;-65
2023/09/27 02:58:32;;;;;;;16.73;10.77;;;;;;;;;;5094619;28;20199;-65
2023/09/27 03:01:00;;;;;;;17.27;10.75;;;;;;;;;;5094620;28;20264;-64
2023/09/27 03:03:30;;;;;;;16.13;11.07;;;;;;;;;;5092980;28;20199;-65
2023/09/27 03:05:58;;;;;;;17.95;10.20;;;;;;;;;;5093264;28;20225;-65
2023/09/27 03:08:26;;;;;;;19.63;11.32;;;;;;;;;;5093048;28;20686;-64
2023/09/27 03:10:53;;;;;;;14.45;10.48;;;;;;;;;;5092907;28;20210;-64
2023/09/27 03:13:20;;;;;;;15.90;11.13;;;;;;;;;;5094325;28;20252;-65
2023/09/27 03:15:57;;;;;;;18.98;11.27;;;;;;;;;;5094278;28;20255;-65
2023/09/27 03:18:24;;;;;;;16.15;10.85;;;;;;;;;;5092577;28;20713;-64
2023/09/27 03:20:52;;;;;;;16.63;10.68;;;;;;;;;;5093880;28;20583;-65
2023/09/27 03:23:19;;;;;;;19.45;12.10;;;;;;;;;;5094298;28;20289;-66
2023/09/27 03:25:48;;;;;;;20.60;10.15;;;;;;;;;;5093813;28;20211;-63
2023/09/27 03:28:15;;;;;;;16.75;11.10;;;;;;;;;;5092515;28;20260;-63
2023/09/27 03:30:43;;;;;;;17.75;11.65;;;;;;;;;;5096460;28;20222;-64
2023/09/27 03:33:10;;;;;;;21.38;11.52;;;;;;;;;;5108299;28;20205;-62
2023/09/27 03:35:37;;;;;;;21.23;11.50;;;;;;;;;;5106071;28;20198;-62
2023/09/27 03:38:05;;;;;;;18.15;10.32;;;;;;;;;;5110210;28;20218;-62
2023/09/27 03:40:32;;;;;;;21.42;11.90;;;;;;;;;;5108261;28;20701;-64
2023/09/27 03:43:00;;;;;;;14.77;10.77;;;;;;;;;;5107159;28;20222;-64
2023/09/27 03:45:30;;;;;;;20.13;10.55;;;;;;;;;;5121334;27;20199;-64
2023/09/27 03:47:57;;;;;;;18.80;9.57;;;;;;;;;;5107181;28;20234;-64
2023/09/27 03:50:25;;;;;;;15.90;10.75;;;;;;;;;;5103562;28;20194;-65
2023/09/27 03:52:56;;;;;;;14.73;10.45;;;;;;;;;;5105778;28;20633;-64
2023/09/27 03:55:24;;;;;;;20.15;10.85;;;;;;;;;;5103836;28;20213;-65
2023/09/27 03:57:54;;;;;;;16.98;11.00;;;;;;;;;;5106247;28;20225;-65
2023/09/27 04:00:22;;;;;;;20.35;10.88;;;;;;;;;;5096882;28;20711;-64
2023/09/27 04:02:50;;;;;;;23.55;11.82;;;;;;;;;;5094874;28;20275;-65
2023/09/27 04:05:23;;;;;;;16.83;10.98;;;;;;;;;;5111460;28;20218;-65
2023/09/27 04:07:51;;;;;;;21.50;10.98;;;;;;;;;;5101446;28;20261;-65
2023/09/27 04:10:19;;;;;;;16.67;10.75;;;;;;;;;;5091249;28;20226;-63
2023/09/27 04:12:47;;;;;;;17.10;10.43;;;;;;;;;;5106735;27;20226;-65
2023/09/27 04:15:14;;;;;;;15.82;10.38;;;;;;;;;;5112883;28;20224;-64
2023/09/27 04:17:42;;;;;;;16.00;11.07;;;;;;;;;;5112110;27;20244;-65
2023/09/27 04:20:19;;;;;;;21.67;11.02;;;;;;;;;;5112782;28;20263;-62
2023/09/27 04:22:47;;;;;;;17.58;11.05;;;;;;;;;;5110699;28;20217;-65
2023/09/27 04:25:16;;;;;;;18.00;11.43;;;;;;;;;;5109364;28;20210;-64
2023/09/27 04:27:46;;;;;;;19.08;10.68;;;;;;;;;;5100818;28;20747;-64
2023/09/27 04:30:19;;;;;;;22.10;11.40;;;;;;;;;;5112556;28;20214;-64
2023/09/27 04:32:50;;;;;;;17.40;11.13;;;;;;;;;;5112146;28;20300;-64
2023/09/27 04:35:19;;;;;;;20.98;11.50;;;;;;;;;;5112552;28;20233;-64
2023/09/27 04:37:47;;;;;;;16.08;10.25;;;;;;;;;;5112248;28;20728;-62
2023/09/27 04:40:14;;;;;;;17.45;11.68;;;;;;;;;;5112764;28;20547;-64
2023/09/27 04:42:42;;;;;;;16.98;11.32;;;;;;;;;;5112522;28;20222;-64
2023/09/27 04:45:11;;;;;;;24.60;12.05;;;;;;;;;;5112302;28;20248;-62
2023/09/27 04:47:40;;;;;;;15.43;11.07;;;;;;;;;;5112343;28;20222;-63
2023/09/27 04:50:11;;;;;;;23.23;12.18;;;;;;;;;;5112357;28;20234;-63
2023/09/27 04:52:39;;;;;;;18.83;11.80;;;;;;;;;;5106519;28;20222;-64
2023/09/27 04:55:08;;;;;;;17.88;11.20;;;;;;;;;;5095987;28;20815;-64
2023/09/27 04:57:36;;;;;;;17.73;11.25;;;;;;;;;;5096020;28;20234;-64
2023/09/27 05:00:06;;;;;;;20.17;11.80;;;;;;;;;;5101787;28;20218;-65
2023/09/27 05:02:33;;;;;;;16.30;11.07;;;;;;;;;;5115646;27;20222;-64
2023/09/27 05:05:00;;;;;;;19.35;10.65;;;;;;;;;;5115304;27;20225;-66
2023/09/27 05:07:29;;;;;;;24.23;11.15;;;;;;;;;;5115693;28;20267;-65
2023/09/27 05:09:56;;;;;;;17.77;10.77;;;;;;;;;;5115536;28;20251;-63
2023/09/27 05:12:23;;;;;;;20.48;10.93;;;;;;;;;;5115371;28;20283;-63
2023/09/27 05:14:51;;;;;;;18.10;11.57;;;;;;;;;;5116173;28;20217;-63
2023/09/27 05:17:18;;;;;;;19.02;11.57;;;;;;;;;;5097450;28;20232;-61
2023/09/27 05:19:45;;;;;;;17.60;12.38;;;;;;;;;;5114283;27;20290;-64
2023/09/27 05:22:14;;;;;;;22.70;12.68;;;;;;;;;;5116242;28;20270;-64
2023/09/27 05:24:41;;;;;;;19.63;12.30;;;;;;;;;;5116280;28;20689;-64
2023/09/27 05:27:08;;;;;;;24.33;13.18;;;;;;;;;;5116566;28;20197;-65
2023/09/27 05:29:35;;;;;;;20.02;12.43;;;;;;;;;;5116444;28;20202;-64
2023/09/27 05:32:03;;;;;;;23.77;12.82;;;;;;;;;;5116405;28;20202;-64
2023/09/27 05:34:31;;;;;;;20.80;12.63;;;;;;;;;;5116205;27;20202;-67
2023/09/27 05:36:58;;;;;;;21.88;13.02;;;;;;;;;;5115442;28;20197;-65
2023/09/27 05:39:26;;;;;;;25.65;13.63;;;;;;;;;;5115214;28;20205;-64
2023/09/27 05:41:53;;;;;;;23.30;13.25;;;;;;;;;;5115566;27;20602;-65
2023/09/27 05:44:20;;;;;;;21.83;12.75;;;;;;;;;;5115507;28;20202;-65
2023/09/27 05:46:48;;;;;;;20.30;13.05;;;;;;;;;;5115064;28;20198;-63
2023/09/27 05:49:16;;;;;;;21.75;12.68;;;;;;;;;;5116219;27;20213;-65
2023/09/27 05:51:43;;;;;;;20.17;13.43;;;;;;;;;;5116280;28;20206;-65
2023/09/27 05:54:11;;;;;;;22.83;14.13;;;;;;;;;;5116023;28;20198;-65
2023/09/27 05:56:38;;;;;;;28.60;14.52;;;;;;;;;;5116435;28;20607;-64
2023/09/27 05:59:08;;;;;;;20.48;13.15;;;;;;;;;;5115975;28;20229;-65
2023/09/27 06:01:37;;;;;;;24.85;14.75;;;;;;;;;;5115870;28;20224;-65
2023/09/27 06:04:05;;;;;;;26.73;14.93;;;;;;;;;;5115323;28;20206;-64
2023/09/27 06:06:32;;;;;;;28.30;15.23;;;;;;;;;;5115615;28;20194;-64
2023/09/27 06:08:59;;;;;;;28.73;15.02;;;;;;;;;;5115764;28;20263;-65
2023/09/27 06:11:26;;;;;;;22.35;14.07;;;;;;;;;;5115705;28;20228;-65
2023/09/27 06:13:54;;;;;;;27.58;14.93;;;;;;;;;;5115487;28;20205;-64
2023/09/27 06:16:21;;;;;;;30.23;14.02;;;;;;;;;;5115485;28;20277;-65
2023/09/27 06:18:49;;;;;;;27.02;14.88;;;;;;;;;;5115373;28;20265;-64
2023/09/27 06:21:16;;;;;;;22.23;14.68;;;;;;;;;;5115722;28;20255;-65
2023/09/27 06:23:44;;;;;;;22.95;14.85;;;;;;;;;;5115490;28;20206;-66
2023/09/27 06:26:12;;;;;;;28.25;15.05;;;;;;;;;;5115460;28;20285;-64
2023/09/27 06:28:40;;;;;;;26.88;14.95;;;;;;;;;;5115228;28;20666;-64
2023/09/27 06:31:07;;;;;;;19.98;14.10;;;;;;;;;;5115207;28;20708;-65
2023/09/27 06:33:39;;;;;;;23.50;14.48;;;;;;;;;;5115376;28;20197;-65
2023/09/27 06:36:10;;;;;;;24.13;14.38;;;;;;;;;;5115075;28;20693;-65
2023/09/27 06:38:38;;;;;;;22.58;14.15;;;;;;;;;;5115025;28;20226;-64
2023/09/27 06:41:05;;;;;;;22.70;14.32;;;;;;;;;;5114935;28;20663;-63
2023/09/27 06:43:33;;;;;;;25.95;14.60;;;;;;;;;;5113790;28;20206;-64
2023/09/27 06:46:01;;;;;;;26.40;15.50;;;;;;;;;;5115201;28;20198;-64
2023/09/27 06:48:29;;;;;;;21.75;13.52;;;;;;;;;;5114861;28;20206;-64
2023/09/27 06:50:56;;;;;;;27.90;13.98;;;;;;;;;;5115019;28;20289;-65
2023/09/27 06:53:24;;;;;;;23.08;13.55;;;;;;;;;;5114844;28;20259;-64
2023/09/27 06:55:58;;;;;;;24.63;13.73;;;;;;;;;;5114997;28;20207;-65
2023/09/27 06:58:26;;;;;;;24.98;14.95;;;;;;;;;;5114537;28;20278;-65
2023/09/27 07:00:54;;;;;;;20.20;13.85;;;;;;;;;;5114709;28;20222;-66
2023/09/27 07:03:24;;;;;;;21.55;13.30;;;;;;;;;;5114577;28;20206;-65
2023/09/27 07:05:53;;;;;;;24.38;13.23;;;;;;;;;;5114624;28;20205;-63
2023/09/27 07:08:20;;;;;;;24.13;14.02;;;;;;;;;;5114454;28;20271;-64
2023/09/27 07:10:47;;;;;;;22.38;13.32;;;;;;;;;;5114769;28;20198;-64
2023/09/27 07:13:15;;;;;;;22.90;13.60;;;;;;;;;;5114461;28;20688;-65
2023/09/27 07:15:45;;;;;;;21.05;13.43;;;;;;;;;;5114281;28;20202;-66
2023/09/27 07:18:13;;;;;;;22.10;13.93;;;;;;;;;;5114428;28;20234;-65
2023/09/27 07:20:41;;;;;;;19.30;12.32;;;;;;;;;;5114280;28;20564;-65
2023/09/27 07:23:14;;;;;;;20.40;13.10;;;;;;;;;;5114399;28;20205;-64
2023/09/27 07:25:42;;;;;;;19.45;11.93;;;;;;;;;;5114611;28;20202;-64
2023/09/27 07:28:11;;;;;;;18.33;11.93;;;;;;;;;;5114319;28;20279;-65
2023/09/27 07:30:37;;;;;;;17.65;11.82;;;;;;;;;;5114127;28;20198;-63
2023/09/27 07:33:11;;;;;;;17.48;11.52;;;;;;;;;;5114029;28;20202;-65
2023/09/27 07:35:43;;;;;;;18.83;11.77;;;;;;;;;;5114172;28;20198;-64
2023/09/27 07:38:10;;;;;;;18.40;11.18;;;;;;;;;;5113920;28;20222;-63
2023/09/27 07:40:38;;;;;;;18.52;11.30;;;;;;;;;;5114060;28;20198;-65
2023/09/27 07:43:06;;;;;;;20.45;11.27;;;;;;;;;;5113952;28;20213;-65
2023/09/27 07:45:36;;;;;;;22.27;10.48;;;;;;;;;;5114028;28;20292;-64
2023/09/27 07:48:04;;;;;;;18.40;10.70;;;;;;;;;;5113920;28;20198;-65
2023/09/27 07:50:31;;;;;;;13.95;9.52;;;;;;;;;;5114309;28;20302;-65
2023/09/27 07:53:00;;;;;;;17.25;9.77;;;;;;;;;;5114115;28;20205;-65
2023/09/27 07:55:27;;;;;;;15.82;10.07;;;;;;;;;;5113776;28;20677;-63
2023/09/27 07:57:54;;;;;;;18.52;9.95;;;;;;;;;;5113950;28;20233;-64
2023/09/27 08:00:27;;;;;;;14.40;9.18;;;;;;;;;;5113719;28;20738;-66
2023/09/27 08:02:57;;;;;;;16.33;9.20;;;;;;;;;;5114141;28;20649;-64
2023/09/27 08:05:25;;;;;;;15.13;9.23;;;;;;;;;;5114061;28;20229;-64
2023/09/27 08:07:53;;;;;;;19.80;8.70;;;;;;;;;;5113598;28;20202;-63
2023/09/27 08:10:20;;;;;;;28.05;9.38;;;;;;;;;;5113857;28;20198;-63
2023/09/27 08:12:48;;;;;;;19.00;8.40;;;;;;;;;;5113651;28;20206;-64
2023/09/27 08:15:17;;;;;;;15.13;8.52;;;;;;;;;;5113798;28;20224;-64
2023/09/27 08:17:47;;;;;;;15.52;8.82;;;;;;;;;;5113804;28;20202;-63
2023/09/27 08:20:14;;;;;;;12.80;8.30;;;;;;;;;;5113751;28;20728;-64
2023/09/27 08:22:42;;;;;;;12.68;8.80;;;;;;;;;;5113580;28;20263;-64
2023/09/27 08:25:16;;;;;;;18.17;8.27;;;;;;;;;;5113483;28;20301;-61
2023/09/27 08:27:44;;;;;;;15.40;7.90;;;;;;;;;;5114462;28;20205;-63
2023/09/27 08:30:12;;;;;;;19.52;8.80;;;;;;;;;;5117845;28;20217;-64
2023/09/27 08:32:40;;;;;;;16.55;7.63;;;;;;;;;;5117868;28;20201;-63
2023/09/27 08:35:09;;;;;;;14.48;7.50;;;;;;;;;;5117394;28;20198;-65
2023/09/27 08:37:37;;;;;;;20.25;7.90;;;;;;;;;;5117217;28;20258;-65
2023/09/27 08:40:05;;;;;;;18.02;7.93;;;;;;;;;;5117195;28;20666;-63
2023/09/27 08:42:34;;;;;;;20.00;7.63;;;;;;;;;;5115551;28;20247;-63
2023/09/27 08:45:02;;;;;;;13.30;6.72;;;;;;;;;;5117910;28;20213;-64
2023/09/27 08:47:30;;;;;;;12.60;6.47;;;;;;;;;;5117177;28;20666;-64
2023/09/27 08:49:58;;;;;;;11.73;6.93;;;;;;;;;;5117417;28;20202;-63
2023/09/27 08:52:29;;;;;;;14.00;7.00;;;;;;;;;;5116358;28;20205;-62
2023/09/27 08:54:56;;;;;;;13.60;6.78;;;;;;;;;;5117084;28;20770;-65
2023/09/27 08:57:26;;;;;;;15.38;6.53;;;;;;;;;;5117127;28;20198;-65
2023/09/27 08:59:53;;;;;;;11.23;6.32;;;;;;;;;;5117106;28;20587;-64
2023/09/27 09:02:23;;;;;;;13.60;5.78;;;;;;;;;;5116923;28;20701;-64
2023/09/27 09:04:51;;;;;;;11.52;5.90;;;;;;;;;;5115789;28;20251;-65
2023/09/27 09:07:18;;;;;;;18.83;6.18;;;;;;;;;;5117203;28;20205;-64
2023/09/27 09:09:46;;;;;;;9.68;5.43;;;;;;;;;;5116935;27;20576;-64
2023/09/27 09:12:13;;;;;;;11.43;6.20;;;;;;;;;;5116904;28;20202;-63
2023/09/27 09:14:49;;;;;;;16.73;5.57;;;;;;;;;;5117066;28;20202;-64
2023/09/27 09:17:18;;;;;;;15.50;5.90;;;;;;;;;;5116828;28;20205;-63
2023/09/27 09:20:21;;;;;;;17.52;5.95;;;;;;;;;;5116901;28;20242;-63
2023/09/27 09:22:53;;;;;;;12.38;5.78;;;;;;;;;;5116869;28;20205;-63
2023/09/27 09:25:22;;;;;;;17.88;5.45;;;;;;;;;;5116632;28;20600;-64
2023/09/27 09:28:13;;;;;;;10.88;6.00;;;;;;;;;;5116425;28;20677;-64
2023/09/27 09:30:40;;;;;;;16.58;5.18;;;;;;;;;;5115846;28;20605;-64
2023/09/27 09:33:19;;;;;;;14.98;5.47;;;;;;;;;;5116339;28;20206;-63
2023/09/27 09:35:47;;;;;;;18.35;5.18;;;;;;;;;;5116335;28;20206;-64
2023/09/27 09:38:34;;;;;;;8.45;4.70;;;;;;;;;;5116120;28;20335;-62
2023/09/27 09:41:01;;;;;;;8.20;5.03;;;;;;;;;;5116468;28;20193;-64
2023/09/27 09:43:33;;;;;;;8.25;4.88;;;;;;;;;;5116354;28;20557;-64
2023/09/27 09:46:03;;;;;;;17.75;5.13;;;;;;;;;;5116155;28;20194;-63
2023/09/27 09:48:33;;;;;;;7.75;4.38;;;;;;;;;;5116124;27;20251;-65
2023/09/27 09:51:07;;;;;;;10.73;4.97;;;;;;;;;;5116066;28;20666;-64
2023/09/27 09:53:38;;;;;;;13.75;4.93;;;;;;;;;;5116554;28;20280;-63
2023/09/27 09:56:07;;;;;;;8.82;4.10;;;;;;;;;;5115850;28;20206;-63
2023/09/27 09:59:03;;;;;;;11.13;4.50;;;;;;;;;;5115668;28;20225;-63
2023/09/27 10:01:37;;;;;;;7.90;4.72;;;;;;;;;;5115198;28;20258;-65
2023/09/27 10:04:05;;;;;;;10.90;4.47;;;;;;;;;;5115944;28;20204;-63
2023/09/27 10:06:33;;;;;;;15.85;5.07;;;;;;;;;;5114567;28;20654;-62
2023/09/27 10:09:16;;;;;;;17.42;5.15;;;;;;;;;;5114224;28;20202;-63
2023/09/27 10:11:47;;;;;;;8.35;4.15;;;;;;;;;;5114729;28;20213;-65
2023/09/27 10:14:16;;;;;;;9.05;4.38;;;;;;;;;;5115909;28;20201;-64
2023/09/27 10:16:44;;;;;;;14.38;4.38;;;;;;;;;;5115605;28;20194;-65
2023/09/27 10:19:13;;;;;;;7.35;3.80;;;;;;;;;;5114463;28;20244;-61
2023/09/27 10:22:05;;;;;;;12.50;4.22;;;;;;;;;;5115693;28;20194;-63
2023/09/27 10:24:35;;;;;;;7.55;4.47;;;;;;;;;;5115643;28;20197;-63
2023/09/27 10:27:02;;;;;;;10.05;4.20;;;;;;;;;;5115506;28;20213;-63
2023/09/27 10:29:29;;;;;;;7.72;4.00;;;;;;;;;;5115367;28;20201;-63
2023/09/27 10:31:56;;;;;;;6.35;3.65;;;;;;;;;;5115358;28;20202;-64
2023/09/27 10:34:33;;;;;;;10.45;3.70;;;;;;;;;;5115301;28;20205;-66
2023/09/27 10:37:00;;;;;;;9.68;4.28;;;;;;;;;;5115603;28;20201;-64
2023/09/27 10:39:30;;;;;;;10.30;3.85;;;;;;;;;;5115033;28;20694;-66
2023/09/27 10:41:57;;;;;;;7.70;4.18;;;;;;;;;;5115130;28;20251;-65
2023/09/27 10:44:33;;;;;;;8.70;3.70;;;;;;;;;;5113345;28;20667;-66
2023/09/27 10:47:03;;;;;;;15.27;4.20;;;;;;;;;;5115024;28;20201;-64
2023/09/27 10:49:38;;;;;;;9.45;4.25;;;;;;;;;;5114943;27;20669;-65
2023/09/27 10:52:16;;;;;;;9.75;3.97;;;;;;;;;;5114371;28;20205;-65
2023/09/27 10:54:43;;;;;;;13.48;3.78;;;;;;;;;;5113870;28;20246;-65
2023/09/27 10:57:12;;;;;;;11.02;3.92;;;;;;;;;;5114713;28;20213;-63
2023/09/27 10:59:41;;;;;;;7.43;3.65;;;;;;;;;;5114682;28;20338;-65
2023/09/27 11:02:08;;;;;;;12.85;4.05;;;;;;;;;;5114727;28;20198;-64
2023/09/27 11:04:37;;;;;;;7.60;3.17;;;;;;;;;;5114821;28;20202;-64
2023/09/27 11:07:04;;;;;;;9.00;4.00;;;;;;;;;;5114774;28;20194;-64
2023/09/27 11:09:31;;;;;;;8.68;3.75;;;;;;;;;;5114617;28;20202;-63
2023/09/27 11:11:59;;;;;;;7.68;4.15;;;;;;;;;;5114322;28;20201;-65
2023/09/27 11:14:31;;;;;;;11.48;3.85;;;;;;;;;;5114658;28;20202;-63
2023/09/27 11:17:15;;;;;;;13.00;4.15;;;;;;;;;;5114416;28;20680;-64
2023/09/27 11:19:42;;;;;;;7.10;3.78;;;;;;;;;;5114728;28;20263;-65
2023/09/27 11:22:09;;;;;;;9.85;3.80;;;;;;;;;;5114421;28;20715;-64
2023/09/27 11:24:41;;;;;;;8.18;4.00;;;;;;;;;;5114265;28;20202;-65
2023/09/27 11:27:08;;;;;;;8.70;4.05;;;;;;;;;;5114143;28;20206;-66
2023/09/27 11:29:35;;;;;;;12.50;3.55;;;;;;;;;;5114234;28;20251;-65
2023/09/27 11:32:03;;;;;;;9.23;3.88;;;;;;;;;;5114381;28;20255;-66
2023/09/27 11:34:31;;;;;;;14.73;4.82;;;;;;;;;;5114240;28;20205;-65
2023/09/27 11:37:00;;;;;;;8.25;4.60;;;;;;;;;;5114042;28;20741;-66
2023/09/27 11:39:29;;;;;;;7.47;3.90;;;;;;;;;;5114152;28;20217;-64
2023/09/27 11:41:58;;;;;;;7.78;4.15;;;;;;;;;;5112902;28;20208;-65
2023/09/27 11:44:27;;;;;;;8.48;3.90;;;;;;;;;;5114182;28;20205;-65
2023/09/27 11:47:07;;;;;;;16.52;4.10;;;;;;;;;;5114027;28;20205;-66
2023/09/27 11:49:35;;;;;;;7.72;4.20;;;;;;;;;;5114003;28;20559;-66
2023/09/27 11:52:05;;;;;;;9.35;3.55;;;;;;;;;;5113948;28;20646;-65
2023/09/27 11:54:33;;;;;;;8.15;4.15;;;;;;;;;;5113902;28;20673;-65
2023/09/27 11:57:00;;;;;;;9.25;3.42;;;;;;;;;;5113801;28;20568;-64
2023/09/27 11:59:27;;;;;;;9.00;3.92;;;;;;;;;;5107742;28;20225;-64
2023/09/27 12:01:54;;;;;;;9.82;3.67;;;;;;;;;;5113210;28;20224;-64
2023/09/27 12:04:21;;;;;;;14.75;3.58;;;;;;;;;;5116621;27;20229;-62
2023/09/27 12:06:49;;;;;;;7.78;3.92;;;;;;;;;;5107837;28;20599;-63
2023/09/27 12:09:17;;;;;;;12.43;4.00;;;;;;;;;;5103644;27;20222;-61
2023/09/27 12:11:44;;;;;;;11.43;3.50;;;;;;;;;;5105482;28;20220;-63
2023/09/27 12:14:12;;;;;;;7.38;3.78;;;;;;;;;;5113576;28;20220;-61
2023/09/27 12:16:41;;;;;;;11.40;3.80;;;;;;;;;;5103568;28;20222;-64
2023/09/27 12:19:09;;;;;;;7.32;3.72;;;;;;;;;;5112931;27;20229;-64
2023/09/27 12:21:36;;;;;;;10.85;3.42;;;;;;;;;;5096639;28;20214;-64
2023/09/27 12:24:05;;;;;;;10.25;3.70;;;;;;;;;;5096101;28;20828;-63
2023/09/27 12:26:33;;;;;;;7.53;3.35;;;;;;;;;;5094731;28;20285;-63
2023/09/27 12:29:00;;;;;;;8.88;3.40;;;;;;;;;;5095644;28;20230;-63
2023/09/27 12:31:27;;;;;;;10.77;3.72;;;;;;;;;;5096922;28;20226;-64
2023/09/27 12:33:55;;;;;;;8.45;3.60;;;;;;;;;;5106691;28;20225;-63
2023/09/27 12:36:23;;;;;;;9.05;3.50;;;;;;;;;;5108911;27;20264;-63
2023/09/27 12:38:51;;;;;;;16.98;3.50;;;;;;;;;;5103006;28;20239;-63
2023/09/27 12:41:22;;;;;;;9.68;3.35;;;;;;;;;;5113579;28;20287;-59
2023/09/27 12:43:49;;;;;;;8.43;3.35;;;;;;;;;;5110709;28;21073;-63
2023/09/27 12:46:16;;;;;;;7.28;3.83;;;;;;;;;;5101143;28;20213;-62
2023/09/27 12:48:44;;;;;;;10.25;3.13;;;;;;;;;;5112981;28;20321;-61
2023/09/27 12:51:12;;;;;;;10.02;3.60;;;;;;;;;;5116638;27;20313;-61
2023/09/27 12:53:40;;;;;;;7.30;3.75;;;;;;;;;;5108572;28;20236;-62
2023/09/27 12:56:08;;;;;;;9.57;3.47;;;;;;;;;;5111851;28;20302;-61
2023/09/27 12:58:35;;;;;;;14.10;3.50;;;;;;;;;;5116282;27;20222;-61
2023/09/27 13:01:03;;;;;;;7.20;2.95;;;;;;;;;;5116049;27;20240;-61
2023/09/27 13:03:31;;;;;;;10.40;3.60;;;;;;;;;;5116285;28;20592;-61
2023/09/27 13:05:58;;;;;;;7.63;3.50;;;;;;;;;;5102559;28;20574;-62
2023/09/27 13:08:26;;;;;;;8.18;3.78;;;;;;;;;;5095834;28;20635;-62
2023/09/27 13:10:53;;;;;;;15.77;3.30;;;;;;;;;;5095298;28;20309;-61
2023/09/27 13:13:20;;;;;;;8.40;3.67;;;;;;;;;;5095476;28;20297;-61
2023/09/27 13:15:47;;;;;;;7.30;3.38;;;;;;;;;;5095961;28;20680;-63
2023/09/27 13:18:15;;;;;;;9.45;3.50;;;;;;;;;;5095373;28;20218;-63
2023/09/27 13:20:42;;;;;;;8.85;3.85;;;;;;;;;;5095866;28;20234;-62
2023/09/27 13:23:10;;;;;;;9.52;3.42;;;;;;;;;;5095430;28;20226;-65
2023/09/27 13:25:37;;;;;;;6.03;3.28;;;;;;;;;;5095844;28;20242;-65
2023/09/27 13:28:04;;;;;;;5.93;3.63;;;;;;;;;;5095145;28;20235;-67
2023/09/27 13:30:32;;;;;;;8.32;3.42;;;;;;;;;;5110638;28;20779;-67
2023/09/27 13:33:03;;;;;;;9.25;3.50;;;;;;;;;;5115653;27;20256;-64
2023/09/27 13:35:30;;;;;;;9.25;3.67;;;;;;;;;;5115585;28;20233;-67
2023/09/27 13:38:06;;;;;;;10.32;3.08;;;;;;;;;;5115430;27;20232;-67
2023/09/27 13:40:34;;;;;;;7.05;3.40;;;;;;;;;;5115967;28;20324;-67
2023/09/27 13:43:01;;;;;;;6.78;3.15;;;;;;;;;;5115006;27;20221;-68
2023/09/27 13:45:29;;;;;;;9.70;3.42;;;;;;;;;;5115409;28;20226;-67
2023/09/27 13:47:56;;;;;;;8.30;3.38;;;;;;;;;;5115350;27;20226;-66
2023/09/27 13:50:24;;;;;;;9.82;3.67;;;;;;;;;;5115428;28;20222;-65
2023/09/27 13:52:51;;;;;;;9.32;3.58;;;;;;;;;;5114978;27;20245;-65
2023/09/27 13:55:18;;;;;;;7.68;3.67;;;;;;;;;;5114333;28;20230;-67
2023/09/27 13:57:47;;;;;;;9.93;3.35;;;;;;;;;;5114863;27;20225;-63
2023/09/27 14:00:15;;;;;;;7.53;3.40;;;;;;;;;;5102154;28;20587;-66
2023/09/27 14:02:43;;;;;;;12.55;3.38;;;;;;;;;;5094747;28;20264;-65
2023/09/27 14:05:10;;;;;;;10.15;3.95;;;;;;;;;;5095190;28;20218;-68
2023/09/27 14:07:39;;;;;;;6.72;3.15;;;;;;;;;;5095298;28;20237;-67
2023/09/27 14:10:07;;;;;;;15.75;3.72;;;;;;;;;;5094503;28;20641;-65
2023/09/27 14:12:35;;;;;;;7.75;3.65;;;;;;;;;;5094598;28;20224;-68
2023/09/27 14:15:02;;;;;;;5.30;3.35;;;;;;;;;;5094475;28;20231;-64
2023/09/27 14:17:30;;;;;;;7.85;3.67;;;;;;;;;;5094512;28;20279;-63
2023/09/27 14:19:57;;;;;;;11.98;3.70;;;;;;;;;;5094498;28;20245;-64
2023/09/27 14:22:24;;;;;;;6.38;3.67;;;;;;;;;;5094334;28;20651;-64
2023/09/27 14:24:52;;;;;;;5.90;3.22;;;;;;;;;;5094102;28;20223;-65
2023/09/27 14:27:20;;;;;;;10.95;4.00;;;;;;;;;;5093698;28;20328;-64
2023/09/27 14:29:47;;;;;;;6.28;3.95;;;;;;;;;;5094190;28;20613;-62
2023/09/27 14:32:14;;;;;;;9.27;3.95;;;;;;;;;;5094200;28;20226;-64
2023/09/27 14:34:41;;;;;;;9.32;3.88;;;;;;;;;;5094478;28;20229;-64